createdAt,value
2022-08-18T00:01:23.082Z,6.38
2022-08-18T00:03:53.054Z,5.63
2022-08-18T00:06:22.000Z,5.75
2022-08-18T00:08:48.300Z,7.65
2022-08-18T00:11:18.831Z,5.47
2022-08-18T00:13:45.198Z,7.38
2022-08-18T00:16:11.545Z,7.53
2022-08-18T00:18:37.832Z,7.68
2022-08-18T00:21:04.563Z,9.75
2022-08-18T00:23:32.413Z,8.43
2022-08-18T00:26:00.375Z,7.53
2022-08-18T00:28:26.739Z,7.22
2022-08-18T00:30:54.029Z,7.25
2022-08-18T00:33:21.059Z,5.78
2022-08-18T00:35:47.425Z,6.25
2022-08-18T00:38:23.294Z,12.45
2022-08-18T00:40:53.120Z,11.07
2022-08-18T00:43:36.531Z,9.57
2022-08-18T00:46:05.960Z,6.20
2022-08-18T00:48:32.518Z,6.45
2022-08-18T00:51:02.793Z,8.32
2022-08-18T00:53:31.498Z,6.55
2022-08-18T00:56:00.522Z,9.32
2022-08-18T00:58:35.665Z,8.65
2022-08-18T01:01:04.301Z,9.65
2022-08-18T01:03:31.412Z,6.90
2022-08-18T01:06:00.891Z,6.07
2022-08-18T01:08:29.097Z,9.95
2022-08-18T01:10:56.052Z,7.28
2022-08-18T01:13:25.858Z,7.63
2022-08-18T01:15:52.177Z,11.55
2022-08-18T01:18:37.291Z,6.63
2022-08-18T01:21:34.890Z,10.70
2022-08-18T01:24:03.337Z,11.23
2022-08-18T01:26:31.195Z,11.63
2022-08-18T01:29:04.914Z,8.10
2022-08-18T01:31:32.372Z,10.52
2022-08-18T01:33:59.440Z,9.93
2022-08-18T01:36:25.764Z,13.65
2022-08-18T01:38:53.451Z,9.00
2022-08-18T01:41:27.013Z,9.18
2022-08-18T01:43:55.909Z,8.75
2022-08-18T01:46:23.155Z,12.90
2022-08-18T01:48:50.679Z,9.52
2022-08-18T01:51:19.620Z,11.60
2022-08-18T01:53:46.242Z,9.15
2022-08-18T01:56:17.560Z,12.25
2022-08-18T01:58:44.027Z,10.45
2022-08-18T02:01:13.239Z,17.02
2022-08-18T02:03:41.134Z,9.63
2022-08-18T02:06:12.071Z,7.78
2022-08-18T02:08:42.153Z,8.00
2022-08-18T02:11:11.848Z,7.43
2022-08-18T02:13:38.619Z,12.10
2022-08-18T02:16:05.050Z,7.38
2022-08-18T02:18:47.342Z,13.35
2022-08-18T02:21:19.218Z,17.20
2022-08-18T02:23:53.893Z,9.90
2022-08-18T02:26:20.622Z,7.55
2022-08-18T02:28:47.007Z,9.93
2022-08-18T02:31:17.592Z,6.28
2022-08-18T02:33:51.646Z,8.10
2022-08-18T02:36:19.070Z,11.95
2022-08-18T02:38:45.372Z,8.95
2022-08-18T02:41:21.789Z,7.97
2022-08-18T02:43:48.444Z,9.98
2022-08-18T02:46:14.980Z,8.65
2022-08-18T02:48:41.267Z,9.65
2022-08-18T02:51:09.640Z,7.60
2022-08-18T02:53:37.566Z,7.35
2022-08-18T02:56:40.414Z,8.55
2022-08-18T02:59:10.399Z,11.80
2022-08-18T03:01:39.432Z,10.57
2022-08-18T03:04:07.063Z,11.82
2022-08-18T03:06:34.401Z,8.70
2022-08-18T03:09:01.246Z,13.60
2022-08-18T03:11:28.528Z,11.55
2022-08-18T03:13:56.348Z,9.13
2022-08-18T03:16:24.535Z,11.40
2022-08-18T03:18:51.692Z,8.50
2022-08-18T03:21:21.334Z,8.50
2022-08-18T03:24:00.200Z,9.60
2022-08-18T03:26:28.686Z,18.20
2022-08-18T03:28:55.141Z,11.55
2022-08-18T03:31:23.047Z,15.48
2022-08-18T03:33:51.527Z,11.55
2022-08-18T03:36:20.001Z,14.15
2022-08-18T03:38:47.584Z,10.85
2022-08-18T03:41:44.094Z,12.93
2022-08-18T03:44:10.884Z,15.43
2022-08-18T03:46:37.521Z,11.75
2022-08-18T03:49:03.873Z,15.98
2022-08-18T03:51:32.470Z,11.23
2022-08-18T03:54:00.356Z,14.70
2022-08-18T03:56:28.522Z,13.45
2022-08-18T03:58:56.437Z,9.65
2022-08-18T04:01:26.545Z,11.15
2022-08-18T04:03:57.592Z,13.80
2022-08-18T04:06:30.147Z,10.20
2022-08-18T04:08:57.757Z,11.98
2022-08-18T04:11:24.671Z,10.45
2022-08-18T04:13:50.975Z,9.77
2022-08-18T04:16:17.301Z,10.93
2022-08-18T04:18:44.484Z,9.95
2022-08-18T04:21:13.555Z,16.40
2022-08-18T04:23:44.017Z,12.77
2022-08-18T04:26:11.464Z,13.55
2022-08-18T04:28:46.130Z,14.40
2022-08-18T04:31:13.542Z,14.95
2022-08-18T04:33:40.371Z,14.40
2022-08-18T04:36:12.759Z,13.70
2022-08-18T04:38:45.083Z,15.10
2022-08-18T04:41:12.791Z,14.18
2022-08-18T04:43:39.455Z,19.58
2022-08-18T04:46:07.038Z,13.60
2022-08-18T04:48:35.098Z,14.70
2022-08-18T04:51:06.869Z,13.43
2022-08-18T04:53:45.655Z,13.75
2022-08-18T04:56:25.982Z,16.23
2022-08-18T04:58:56.245Z,18.13
2022-08-18T05:01:24.592Z,22.88
2022-08-18T05:03:51.471Z,17.50
2022-08-18T05:06:18.178Z,17.27
2022-08-18T05:08:44.526Z,17.27
2022-08-18T05:11:10.844Z,17.52
2022-08-18T05:13:37.193Z,21.95
2022-08-18T05:16:11.650Z,17.15
2022-08-18T05:18:40.412Z,16.10
2022-08-18T05:21:14.229Z,16.92
2022-08-18T05:23:42.056Z,15.48
2022-08-18T05:26:09.048Z,13.07
2022-08-18T05:28:37.373Z,19.85
2022-08-18T05:31:13.124Z,20.33
2022-08-18T05:33:40.531Z,17.38
2022-08-18T05:36:16.330Z,16.88
2022-08-18T05:38:46.408Z,14.43
2022-08-18T05:41:33.752Z,17.25
2022-08-18T05:44:00.440Z,13.77
2022-08-18T05:46:47.419Z,15.68
2022-08-18T05:49:15.583Z,15.77
2022-08-18T05:51:46.436Z,17.17
2022-08-18T05:54:31.741Z,13.13
2022-08-18T05:57:01.189Z,11.18
2022-08-18T05:59:32.056Z,11.13
2022-08-18T06:02:07.727Z,13.00
2022-08-18T06:04:49.588Z,13.70
2022-08-18T06:07:25.861Z,15.15
2022-08-18T06:10:00.046Z,14.73
2022-08-18T06:12:37.371Z,20.60
2022-08-18T06:15:13.193Z,16.83
2022-08-18T06:17:48.595Z,19.35
2022-08-18T06:20:20.668Z,22.83
2022-08-18T06:23:05.596Z,27.90
2022-08-18T06:25:42.003Z,22.85
2022-08-18T06:28:13.204Z,23.60
2022-08-18T06:30:42.311Z,20.70
2022-08-18T06:33:08.774Z,35.08
2022-08-18T06:35:50.464Z,41.55
2022-08-18T06:38:37.110Z,30.25
2022-08-18T06:41:09.170Z,42.60
2022-08-18T06:43:59.418Z,26.40
2022-08-18T06:46:41.786Z,28.08
2022-08-18T06:49:10.118Z,30.95
2022-08-18T06:51:40.668Z,30.00
2022-08-18T06:54:24.391Z,29.17
2022-08-18T06:56:51.999Z,35.28
2022-08-18T06:59:23.757Z,35.78
2022-08-18T07:01:52.161Z,33.92
2022-08-18T07:04:32.346Z,32.85
2022-08-18T07:06:58.667Z,32.28
2022-08-18T07:09:32.853Z,35.72
2022-08-18T07:12:07.097Z,36.05
2022-08-18T07:14:42.980Z,49.58
2022-08-18T07:17:52.815Z,38.88
2022-08-18T07:20:25.594Z,46.42
2022-08-18T07:22:53.571Z,45.80
2022-08-18T07:25:22.677Z,48.15
2022-08-18T07:27:50.193Z,45.33
2022-08-18T07:30:19.854Z,52.38
2022-08-18T07:33:21.184Z,52.28
2022-08-18T07:35:49.936Z,58.42
2022-08-18T07:38:42.188Z,79.17
2022-08-18T07:41:18.030Z,70.32
2022-08-18T07:43:53.436Z,82.60
2022-08-18T07:46:26.584Z,80.75
2022-08-18T07:48:52.876Z,76.07
2022-08-18T07:51:24.162Z,78.03
2022-08-18T07:53:55.853Z,79.43
2022-08-18T07:56:29.453Z,79.53
2022-08-18T07:59:02.921Z,78.80
2022-08-18T08:01:35.877Z,80.88
2022-08-18T08:04:02.366Z,74.43
2022-08-18T08:07:20.322Z,81.15
2022-08-18T08:09:53.413Z,76.00
2022-08-18T08:12:43.126Z,76.00
2022-08-18T08:17:44.168Z,73.40
2022-08-18T08:20:19.192Z,71.90
2022-08-18T08:22:59.377Z,75.45
2022-08-18T08:25:47.461Z,72.63
2022-08-18T08:28:20.412Z,71.03
2022-08-18T08:30:52.180Z,71.18
2022-08-18T08:33:26.788Z,68.90
2022-08-18T08:35:58.802Z,64.38
2022-08-18T08:38:42.197Z,68.00
2022-08-18T08:41:29.018Z,62.35
2022-08-18T08:44:01.318Z,67.93
2022-08-18T08:46:32.951Z,66.47
2022-08-18T08:49:03.099Z,69.18
2022-08-18T08:51:33.583Z,63.38
2022-08-18T08:54:12.142Z,61.22
2022-08-18T08:56:46.038Z,67.45
2022-08-18T08:59:13.839Z,64.88
2022-08-18T09:01:52.112Z,68.35
2022-08-18T09:04:23.601Z,58.80
2022-08-18T09:06:56.514Z,59.75
2022-08-18T09:09:22.930Z,63.78
2022-08-18T09:12:07.707Z,53.60
2022-08-18T09:14:37.097Z,58.08
2022-08-18T09:17:24.758Z,59.83
2022-08-18T09:20:06.446Z,56.90
2022-08-18T09:22:32.787Z,58.00
2022-08-18T09:24:59.237Z,57.83
2022-08-18T09:28:07.211Z,54.22
2022-08-18T09:30:47.802Z,57.35
2022-08-18T09:33:18.664Z,58.22
2022-08-18T09:35:54.780Z,55.83
2022-08-18T09:38:45.229Z,57.83
2022-08-18T09:41:31.883Z,54.67
2022-08-18T09:44:26.781Z,53.75
2022-08-18T09:46:55.836Z,53.92
2022-08-18T09:49:22.234Z,51.97
2022-08-18T09:51:50.290Z,47.80
2022-08-18T09:54:21.299Z,49.33
2022-08-18T09:56:54.179Z,49.92
2022-08-18T09:59:34.943Z,54.45
2022-08-18T10:04:29.569Z,55.83
2022-08-18T10:07:14.672Z,56.03
2022-08-18T10:09:51.835Z,49.58
2022-08-18T10:12:28.091Z,56.45
2022-08-18T10:15:02.867Z,54.03
2022-08-18T10:17:39.081Z,52.95
2022-08-18T10:20:26.187Z,57.17
2022-08-18T10:22:53.902Z,50.90
2022-08-18T10:25:41.086Z,55.85
2022-08-18T10:28:12.715Z,59.83
2022-08-18T10:30:57.641Z,56.88
2022-08-18T10:33:44.985Z,55.70
2022-08-18T10:36:31.261Z,52.47
2022-08-18T10:38:57.671Z,54.38
2022-08-18T10:44:28.915Z,56.80
2022-08-18T10:46:57.838Z,58.45
2022-08-18T10:49:26.393Z,55.60
2022-08-18T10:52:01.098Z,50.30
2022-08-18T10:54:50.960Z,54.30
2022-08-18T10:57:18.346Z,58.13
2022-08-18T11:00:09.763Z,51.63
2022-08-18T11:02:42.220Z,55.35
2022-08-18T11:05:10.882Z,55.38
2022-08-18T11:07:39.658Z,60.42
2022-08-18T11:10:32.261Z,57.55
2022-08-18T11:13:03.100Z,62.97
2022-08-18T11:15:41.476Z,60.40
2022-08-18T11:18:10.779Z,67.90
2022-08-18T11:23:11.736Z,63.95
2022-08-18T11:25:39.649Z,61.55
2022-08-18T11:28:14.851Z,58.17
2022-08-18T11:30:45.940Z,60.38
2022-08-18T11:33:23.057Z,60.28
2022-08-18T11:35:53.151Z,58.88
2022-08-18T11:38:23.069Z,64.18
2022-08-18T11:41:10.772Z,53.28
2022-08-18T11:43:42.426Z,58.33
2022-08-18T11:46:12.038Z,62.65
2022-08-18T11:48:51.043Z,63.30
2022-08-18T11:51:25.077Z,62.63
2022-08-18T11:53:58.076Z,60.17
2022-08-18T11:56:38.628Z,56.13
2022-08-18T11:59:07.183Z,58.40
2022-08-18T12:01:46.056Z,56.03
2022-08-18T12:04:13.388Z,52.58
2022-08-18T12:06:40.959Z,54.28
2022-08-18T12:12:23.365Z,55.38
2022-08-18T12:14:52.055Z,52.97
2022-08-18T12:17:18.768Z,56.15
2022-08-18T12:19:45.142Z,48.30
2022-08-18T12:22:17.568Z,53.58
2022-08-18T12:24:44.036Z,50.33
2022-08-18T12:27:20.447Z,52.80
2022-08-18T12:29:47.721Z,50.80
2022-08-18T12:32:17.994Z,53.22
2022-08-18T12:35:08.988Z,52.25
2022-08-18T12:37:58.437Z,54.33
2022-08-18T12:40:22.609Z,54.55
2022-08-18T12:42:49.529Z,50.25
2022-08-18T12:45:16.157Z,64.15
2022-08-18T12:47:43.207Z,57.22
2022-08-18T12:50:09.770Z,59.55
2022-08-18T12:52:37.410Z,53.72
2022-08-18T12:55:08.597Z,53.70
2022-08-18T12:57:52.217Z,57.00
2022-08-18T13:00:21.129Z,54.88
2022-08-18T13:02:54.966Z,47.67
2022-08-18T13:05:26.441Z,49.40
2022-08-18T13:08:00.314Z,50.65
2022-08-18T13:10:45.815Z,55.40
2022-08-18T13:13:14.670Z,52.08
2022-08-18T13:15:55.557Z,62.88
2022-08-18T13:18:27.180Z,54.38
2022-08-18T13:20:55.037Z,51.08
2022-08-18T13:23:24.951Z,52.17
2022-08-18T13:25:51.629Z,60.83
2022-08-18T13:28:25.934Z,52.40
2022-08-18T13:30:56.880Z,52.47
2022-08-18T13:33:57.209Z,55.63
2022-08-18T13:36:10.002Z,58.78
2022-08-18T13:38:36.366Z,60.95
2022-08-18T13:41:05.018Z,57.42
2022-08-18T13:43:35.493Z,53.97
2022-08-18T13:46:02.679Z,57.58
2022-08-18T13:48:31.397Z,54.60
2022-08-18T13:50:59.935Z,54.13
2022-08-18T13:53:28.549Z,56.05
2022-08-18T13:55:57.899Z,53.05
2022-08-18T13:58:25.405Z,54.28
2022-08-18T14:01:05.516Z,55.13
2022-08-18T14:03:47.530Z,61.03
2022-08-18T14:06:15.626Z,61.95
2022-08-18T14:08:49.519Z,60.33
2022-08-18T14:11:17.165Z,57.50
2022-08-18T14:13:44.433Z,58.70
2022-08-18T14:16:11.215Z,60.22
2022-08-18T14:19:05.022Z,55.47
2022-08-18T14:22:00.280Z,55.90
2022-08-18T14:24:48.876Z,47.08
2022-08-18T14:27:16.034Z,49.27
2022-08-18T14:29:46.783Z,52.83
2022-08-18T14:32:18.116Z,54.45
2022-08-18T14:34:50.758Z,56.10
2022-08-18T14:37:17.324Z,52.90
2022-08-18T14:39:47.798Z,48.60
2022-08-18T14:42:15.462Z,49.13
2022-08-18T14:44:41.800Z,45.72
2022-08-18T14:47:12.166Z,45.60
2022-08-18T14:49:47.963Z,49.65
2022-08-18T14:52:14.777Z,43.53
2022-08-18T14:54:41.266Z,47.88
2022-08-18T14:57:12.741Z,47.67
2022-08-18T14:59:39.071Z,43.40
2022-08-18T15:02:06.361Z,45.13
2022-08-18T15:04:55.828Z,42.50
2022-08-18T15:07:23.810Z,41.80
2022-08-18T15:09:50.465Z,43.42
2022-08-18T15:12:36.953Z,45.85
2022-08-18T15:15:05.430Z,46.30
2022-08-18T15:17:36.394Z,42.30
2022-08-18T15:20:07.914Z,55.78
2022-08-18T15:23:01.559Z,39.97
2022-08-18T15:25:36.482Z,38.78
2022-08-18T15:28:02.993Z,41.15
2022-08-18T15:30:29.849Z,39.75
2022-08-18T15:32:58.988Z,36.17
2022-08-18T15:35:29.799Z,39.03
2022-08-18T15:37:57.160Z,43.25
2022-08-18T15:40:30.816Z,46.08
2022-08-18T15:43:02.023Z,40.55
2022-08-18T15:45:35.399Z,45.38
2022-08-18T15:48:01.981Z,44.78
2022-08-18T15:50:29.570Z,43.30
2022-08-18T15:52:59.182Z,42.47
2022-08-18T15:55:26.478Z,40.13
2022-08-18T15:57:57.920Z,37.70
2022-08-18T16:00:26.067Z,39.50
2022-08-18T16:02:53.909Z,39.75
2022-08-18T16:05:23.874Z,35.85
2022-08-18T16:07:51.691Z,35.72
2022-08-18T16:10:19.277Z,36.17
2022-08-18T16:12:46.449Z,44.58
2022-08-18T16:15:19.516Z,44.35
2022-08-18T16:17:48.370Z,45.65
2022-08-18T16:20:14.888Z,36.75
2022-08-18T16:22:41.280Z,42.97
2022-08-18T16:25:08.334Z,38.80
2022-08-18T16:27:35.098Z,43.03
2022-08-18T16:30:04.231Z,40.33
2022-08-18T16:32:31.503Z,39.42
2022-08-18T16:34:58.603Z,42.80
2022-08-18T16:37:26.924Z,41.97
2022-08-18T16:39:53.988Z,35.60
2022-08-18T16:42:20.438Z,35.97
2022-08-18T16:44:46.997Z,34.30
2022-08-18T16:47:14.149Z,41.58
2022-08-18T16:49:40.442Z,40.70
2022-08-18T16:52:07.068Z,38.38
2022-08-18T16:54:33.508Z,39.33
2022-08-18T16:56:59.827Z,41.83
2022-08-18T16:59:44.527Z,39.88
2022-08-18T17:02:29.231Z,40.55
2022-08-18T17:04:55.584Z,37.13
2022-08-18T17:07:21.897Z,36.67
2022-08-18T17:09:48.234Z,40.03
2022-08-18T17:12:14.638Z,41.05
2022-08-18T17:14:40.954Z,36.22
2022-08-18T17:17:07.657Z,38.83
2022-08-18T17:19:34.812Z,37.22
2022-08-18T17:22:02.103Z,36.63
2022-08-18T17:24:32.237Z,42.92
2022-08-18T17:26:59.660Z,34.28
2022-08-18T17:29:28.331Z,34.58
2022-08-18T17:31:58.989Z,39.00
2022-08-18T17:34:39.470Z,35.83
2022-08-18T17:37:08.314Z,34.65
2022-08-18T17:39:37.668Z,35.77
2022-08-18T17:42:22.983Z,37.13
2022-08-18T17:44:52.394Z,38.95
2022-08-18T17:47:25.557Z,39.92
2022-08-18T17:50:26.788Z,39.80
2022-08-18T17:52:59.143Z,52.60
2022-08-18T17:55:28.472Z,36.85
2022-08-18T17:57:59.100Z,37.55
2022-08-18T18:00:25.443Z,38.80
2022-08-18T18:02:51.779Z,40.75
2022-08-18T18:05:20.323Z,39.15
2022-08-18T18:07:52.848Z,37.75
2022-08-18T18:10:34.120Z,44.55
2022-08-18T18:13:08.734Z,41.45
2022-08-18T18:15:39.675Z,41.38
2022-08-18T18:18:23.923Z,38.33
2022-08-18T18:21:16.341Z,39.13
2022-08-18T18:23:50.638Z,41.72
2022-08-18T18:26:22.452Z,39.20
2022-08-18T18:28:50.037Z,36.42
2022-08-18T18:31:18.410Z,37.53
2022-08-18T18:33:45.041Z,35.70
2022-08-18T18:36:11.525Z,38.35
2022-08-18T18:38:40.610Z,34.15
2022-08-18T18:41:12.999Z,34.35
2022-08-18T18:43:46.943Z,31.70
2022-08-18T18:46:23.105Z,31.67
2022-08-18T18:48:55.298Z,32.67
2022-08-18T18:51:35.907Z,31.92
2022-08-18T18:54:23.193Z,27.15
2022-08-18T18:56:51.506Z,29.63
2022-08-18T18:59:20.960Z,25.77
2022-08-18T19:01:51.753Z,25.90
2022-08-18T19:04:24.713Z,24.85
2022-08-18T19:06:54.123Z,36.55
2022-08-18T19:09:31.236Z,22.67
2022-08-18T19:12:03.767Z,22.30
2022-08-18T19:14:34.439Z,22.70
2022-08-18T19:17:00.775Z,24.38
2022-08-18T19:19:39.113Z,24.65
2022-08-18T19:22:19.279Z,21.65
2022-08-18T19:24:52.373Z,21.95
2022-08-18T19:27:28.120Z,20.00
2022-08-18T19:29:56.879Z,20.35
2022-08-18T19:32:26.647Z,23.47
2022-08-18T19:37:31.076Z,24.05
2022-08-18T19:40:07.160Z,19.98
2022-08-18T19:42:44.342Z,21.88
2022-08-18T19:45:24.718Z,20.90
2022-08-18T19:47:55.853Z,20.67
2022-08-18T19:50:22.108Z,21.20
2022-08-18T19:52:51.531Z,21.77
2022-08-18T19:55:28.146Z,30.48
2022-08-18T19:58:01.388Z,23.42
2022-08-18T20:00:34.527Z,23.73
2022-08-18T20:03:03.976Z,24.58
2022-08-18T20:05:42.234Z,21.15
2022-08-18T20:08:27.382Z,21.67
2022-08-18T20:11:12.817Z,23.13
2022-08-18T20:13:43.234Z,22.45
2022-08-18T20:16:14.906Z,24.27
2022-08-18T20:18:44.140Z,25.85
2022-08-18T20:21:22.448Z,21.67
2022-08-18T20:24:00.002Z,20.23
2022-08-18T20:26:38.495Z,21.38
2022-08-18T20:29:05.441Z,24.52
2022-08-18T20:31:49.026Z,22.15
2022-08-18T20:34:23.290Z,20.30
2022-08-18T20:36:50.245Z,22.27
2022-08-18T20:39:32.179Z,22.00
2022-08-18T20:41:59.789Z,20.48
2022-08-18T20:44:44.906Z,21.83
2022-08-18T20:47:20.439Z,21.88
2022-08-18T20:50:06.396Z,23.95
2022-08-18T20:52:43.362Z,24.02
2022-08-18T20:55:11.832Z,21.30
2022-08-18T20:57:38.781Z,23.30
2022-08-18T21:00:13.184Z,20.45
2022-08-18T21:02:43.555Z,23.15
2022-08-18T21:05:18.288Z,20.63
2022-08-18T21:08:00.306Z,20.17
2022-08-18T21:10:30.120Z,20.38
2022-08-18T21:15:25.397Z,22.40
2022-08-18T21:18:30.105Z,22.23
2022-08-18T21:20:57.963Z,18.08
2022-08-18T21:23:34.047Z,21.02
2022-08-18T21:26:06.752Z,22.17
2022-08-18T21:28:35.046Z,19.80
2022-08-18T21:31:41.573Z,19.30
2022-08-18T21:33:55.815Z,20.42
2022-08-18T21:36:31.396Z,19.08
2022-08-18T21:39:06.089Z,21.25
2022-08-18T21:41:33.558Z,25.48
2022-08-18T21:44:05.875Z,24.88
2022-08-18T21:46:32.639Z,29.20
2022-08-18T21:49:00.880Z,34.92
2022-08-18T21:51:31.131Z,34.33
2022-08-18T21:53:58.523Z,39.92
2022-08-18T21:56:29.059Z,35.22
2022-08-18T21:59:12.278Z,34.20
2022-08-18T22:01:48.041Z,32.40
2022-08-18T22:04:29.330Z,27.75
2022-08-18T22:06:57.419Z,31.15
2022-08-18T22:10:04.064Z,33.95
2022-08-18T22:12:53.683Z,37.30
2022-08-18T22:15:35.565Z,29.48
2022-08-18T22:18:05.315Z,35.22
2022-08-18T22:23:21.995Z,36.35
2022-08-18T22:25:48.974Z,35.97
2022-08-18T22:28:20.695Z,36.00
2022-08-18T22:30:47.007Z,33.03
2022-08-18T22:33:13.325Z,32.35
2022-08-18T22:35:39.814Z,37.55
2022-08-18T22:38:06.130Z,32.78
2022-08-18T22:40:32.426Z,38.60
2022-08-18T22:42:58.762Z,36.67
2022-08-18T22:45:25.075Z,40.05
2022-08-18T22:47:51.380Z,46.60
2022-08-18T22:50:17.699Z,43.10
2022-08-18T22:52:46.352Z,40.97
2022-08-18T22:55:14.779Z,40.35
2022-08-18T22:57:47.223Z,29.20
2022-08-18T23:00:16.484Z,20.60
2022-08-18T23:02:43.167Z,23.95
2022-08-18T23:05:09.712Z,15.07
2022-08-18T23:07:36.415Z,20.05
2022-08-18T23:10:03.743Z,15.23
2022-08-18T23:12:34.750Z,14.88
2022-08-18T23:15:09.174Z,14.43
2022-08-18T23:17:35.508Z,16.48
2022-08-18T23:20:01.823Z,13.25
2022-08-18T23:22:28.764Z,18.40
2022-08-18T23:24:55.074Z,18.02
2022-08-18T23:27:21.746Z,20.90
2022-08-18T23:29:48.738Z,18.17
2022-08-18T23:32:15.108Z,20.67
2022-08-18T23:34:41.483Z,24.35
2022-08-18T23:37:09.592Z,19.70
2022-08-18T23:39:38.883Z,18.88
2022-08-18T23:42:06.458Z,16.73
2022-08-18T23:44:33.247Z,17.67
2022-08-18T23:47:00.388Z,15.55
2022-08-18T23:49:28.628Z,16.10
2022-08-18T23:51:57.786Z,20.00
2022-08-18T23:54:33.684Z,22.35
2022-08-18T23:57:00.500Z,17.52
2022-08-18T23:59:27.455Z,20.30
